sensor_id;sensor_type;location;lat;lon;timestamp;P1;durP1;ratioP1;P2;durP2;ratioP2
61338;SDS011;47213;52.362;4.606;2023-10-09T00:00:57;21.50;;;11.00;;
61338;SDS011;47213;52.362;4.606;2023-10-09T00:05:56;20.20;;;9.80;;
61338;SDS011;47213;52.362;4.606;2023-10-09T00:15:57;19.20;;;9.40;;
61338;SDS011;47213;52.362;4.606;2023-10-09T00:20:56;19.20;;;9.40;;
61338;SDS011;47213;52.362;4.606;2023-10-09T00:25:56;18.30;;;8.80;;
61338;SDS011;47213;52.362;4.606;2023-10-09T00:40:56;18.90;;;8.10;;
61338;SDS011;47213;52.362;4.606;2023-10-09T00:50:57;17.80;;;7.60;;
61338;SDS011;47213;52.362;4.606;2023-10-09T01:00:56;18.10;;;7.80;;
61338;SDS011;47213;52.362;4.606;2023-10-09T01:10:57;17.90;;;7.30;;
61338;SDS011;47213;52.362;4.606;2023-10-09T01:50:56;17.40;;;7.10;;
61338;SDS011;47213;52.362;4.606;2023-10-09T01:55:56;18.50;;;6.50;;
61338;SDS011;47213;52.362;4.606;2023-10-09T02:00:56;18.50;;;6.50;;
61338;SDS011;47213;52.362;4.606;2023-10-09T02:05:56;17.60;;;6.70;;
61338;SDS011;47213;52.362;4.606;2023-10-09T02:15:57;19.90;;;6.80;;
61338;SDS011;47213;52.362;4.606;2023-10-09T02:30:56;17.80;;;6.70;;
61338;SDS011;47213;52.362;4.606;2023-10-09T02:35:57;14.60;;;6.90;;
61338;SDS011;47213;52.362;4.606;2023-10-09T02:40:56;14.60;;;6.90;;
61338;SDS011;47213;52.362;4.606;2023-10-09T02:45:56;17.90;;;7.20;;
61338;SDS011;47213;52.362;4.606;2023-10-09T02:50:56;17.90;;;7.20;;
61338;SDS011;47213;52.362;4.606;2023-10-09T02:55:56;16.10;;;7.60;;
61338;SDS011;47213;52.362;4.606;2023-10-09T03:00:56;16.10;;;7.60;;
61338;SDS011;47213;52.362;4.606;2023-10-09T03:20:56;16.90;;;7.20;;
61338;SDS011;47213;52.362;4.606;2023-10-09T03:25:56;17.30;;;7.50;;
61338;SDS011;47213;52.362;4.606;2023-10-09T03:35:56;18.00;;;7.40;;
61338;SDS011;47213;52.362;4.606;2023-10-09T03:50:57;13.50;;;7.20;;
61338;SDS011;47213;52.362;4.606;2023-10-09T04:05:56;14.10;;;6.60;;
61338;SDS011;47213;52.362;4.606;2023-10-09T04:15:57;15.60;;;6.70;;
61338;SDS011;47213;52.362;4.606;2023-10-09T04:20:57;15.60;;;6.70;;
61338;SDS011;47213;52.362;4.606;2023-10-09T04:25:57;15.80;;;6.70;;
61338;SDS011;47213;52.362;4.606;2023-10-09T04:30:57;15.80;;;6.70;;
61338;SDS011;47213;52.362;4.606;2023-10-09T04:36:05;13.80;;;6.60;;
61338;SDS011;47213;52.362;4.606;2023-10-09T04:40:57;13.80;;;6.60;;
61338;SDS011;47213;52.362;4.606;2023-10-09T04:45:58;14.80;;;6.70;;
61338;SDS011;47213;52.362;4.606;2023-10-09T04:50:57;14.80;;;6.70;;
61338;SDS011;47213;52.362;4.606;2023-10-09T04:55:57;14.10;;;6.50;;
61338;SDS011;47213;52.362;4.606;2023-10-09T05:00:57;14.10;;;6.50;;
61338;SDS011;47213;52.362;4.606;2023-10-09T05:05:57;15.70;;;6.40;;
61338;SDS011;47213;52.362;4.606;2023-10-09T05:10:59;15.70;;;6.40;;
61338;SDS011;47213;52.362;4.606;2023-10-09T05:30:58;14.60;;;6.40;;
61338;SDS011;47213;52.362;4.606;2023-10-09T05:40:57;16.40;;;6.50;;
61338;SDS011;47213;52.362;4.606;2023-10-09T05:45:57;13.80;;;6.00;;
61338;SDS011;47213;52.362;4.606;2023-10-09T06:00:57;16.90;;;6.50;;
61338;SDS011;47213;52.362;4.606;2023-10-09T06:10:57;16.60;;;6.40;;
61338;SDS011;47213;52.362;4.606;2023-10-09T06:15:57;19.60;;;7.10;;
61338;SDS011;47213;52.362;4.606;2023-10-09T06:20:57;19.60;;;7.10;;
61338;SDS011;47213;52.362;4.606;2023-10-09T06:35:57;16.80;;;6.70;;
61338;SDS011;47213;52.362;4.606;2023-10-09T06:40:57;16.80;;;6.70;;
61338;SDS011;47213;52.362;4.606;2023-10-09T06:50:57;17.90;;;6.90;;
61338;SDS011;47213;52.362;4.606;2023-10-09T07:15:57;16.60;;;6.30;;
61338;SDS011;47213;52.362;4.606;2023-10-09T07:20:57;16.60;;;6.30;;
61338;SDS011;47213;52.362;4.606;2023-10-09T07:26:01;18.00;;;7.30;;
61338;SDS011;47213;52.362;4.606;2023-10-09T07:30:57;18.00;;;7.30;;
61338;SDS011;47213;52.362;4.606;2023-10-09T07:36:00;17.70;;;6.90;;
61338;SDS011;47213;52.362;4.606;2023-10-09T07:40:57;17.70;;;6.90;;
61338;SDS011;47213;52.362;4.606;2023-10-09T07:45:57;17.60;;;6.60;;
61338;SDS011;47213;52.362;4.606;2023-10-09T07:50:57;17.60;;;6.60;;
61338;SDS011;47213;52.362;4.606;2023-10-09T08:00:57;17.70;;;6.60;;
61338;SDS011;47213;52.362;4.606;2023-10-09T08:10:57;17.00;;;6.50;;
61338;SDS011;47213;52.362;4.606;2023-10-09T08:20:57;29.50;;;9.20;;
61338;SDS011;47213;52.362;4.606;2023-10-09T08:26:02;13.30;;;5.60;;
61338;SDS011;47213;52.362;4.606;2023-10-09T08:35:57;13.40;;;5.50;;
61338;SDS011;47213;52.362;4.606;2023-10-09T08:41:06;13.40;;;5.50;;
61338;SDS011;47213;52.362;4.606;2023-10-09T08:50:57;15.40;;;6.10;;
61338;SDS011;47213;52.362;4.606;2023-10-09T08:55:57;15.80;;;6.10;;
61338;SDS011;47213;52.362;4.606;2023-10-09T09:00:58;15.80;;;6.10;;
61338;SDS011;47213;52.362;4.606;2023-10-09T09:05:59;13.20;;;5.20;;
61338;SDS011;47213;52.362;4.606;2023-10-09T09:15:58;13.80;;;5.90;;
61338;SDS011;47213;52.362;4.606;2023-10-09T09:20:58;13.80;;;5.90;;
61338;SDS011;47213;52.362;4.606;2023-10-09T09:25:57;15.80;;;5.80;;
61338;SDS011;47213;52.362;4.606;2023-10-09T09:31:07;15.80;;;5.80;;
61338;SDS011;47213;52.362;4.606;2023-10-09T09:36:00;14.60;;;5.60;;
61338;SDS011;47213;52.362;4.606;2023-10-09T09:40:57;14.60;;;5.60;;
61338;SDS011;47213;52.362;4.606;2023-10-09T09:45:57;16.30;;;5.70;;
61338;SDS011;47213;52.362;4.606;2023-10-09T10:01:03;13.20;;;5.60;;
61338;SDS011;47213;52.362;4.606;2023-10-09T10:05:59;12.70;;;5.70;;
61338;SDS011;47213;52.362;4.606;2023-10-09T10:10:58;12.70;;;5.70;;
61338;SDS011;47213;52.362;4.606;2023-10-09T10:16:00;14.30;;;5.40;;
61338;SDS011;47213;52.362;4.606;2023-10-09T10:21:09;14.30;;;5.40;;
61338;SDS011;47213;52.362;4.606;2023-10-09T10:26:16;15.80;;;5.30;;
61338;SDS011;47213;52.362;4.606;2023-10-09T10:30:58;15.80;;;5.30;;
61338;SDS011;47213;52.362;4.606;2023-10-09T10:46:03;14.10;;;5.50;;
61338;SDS011;47213;52.362;4.606;2023-10-09T10:50:58;14.10;;;5.50;;
61338;SDS011;47213;52.362;4.606;2023-10-09T10:55:59;12.70;;;5.20;;
61338;SDS011;47213;52.362;4.606;2023-10-09T11:00:58;12.70;;;5.20;;
61338;SDS011;47213;52.362;4.606;2023-10-09T11:06:02;12.90;;;5.20;;
61338;SDS011;47213;52.362;4.606;2023-10-09T11:11:13;12.90;;;5.20;;
61338;SDS011;47213;52.362;4.606;2023-10-09T11:15:58;12.70;;;5.10;;
61338;SDS011;47213;52.362;4.606;2023-10-09T11:25:58;14.60;;;5.40;;
61338;SDS011;47213;52.362;4.606;2023-10-09T11:31:14;14.60;;;5.40;;
61338;SDS011;47213;52.362;4.606;2023-10-09T11:35:58;13.60;;;5.40;;
61338;SDS011;47213;52.362;4.606;2023-10-09T11:41:10;13.60;;;5.40;;
61338;SDS011;47213;52.362;4.606;2023-10-09T11:46:13;13.20;;;5.00;;
61338;SDS011;47213;52.362;4.606;2023-10-09T11:50:58;13.20;;;5.00;;
61338;SDS011;47213;52.362;4.606;2023-10-09T11:55:58;12.40;;;5.20;;
61338;SDS011;47213;52.362;4.606;2023-10-09T12:00:58;12.40;;;5.20;;
61338;SDS011;47213;52.362;4.606;2023-10-09T12:06:00;14.40;;;5.50;;
61338;SDS011;47213;52.362;4.606;2023-10-09T12:10:58;14.40;;;5.50;;
61338;SDS011;47213;52.362;4.606;2023-10-09T12:20:58;17.20;;;5.50;;
61338;SDS011;47213;52.362;4.606;2023-10-09T12:25:59;13.70;;;5.60;;
61338;SDS011;47213;52.362;4.606;2023-10-09T12:45:58;18.80;;;6.10;;
61338;SDS011;47213;52.362;4.606;2023-10-09T12:50:58;18.80;;;6.10;;
61338;SDS011;47213;52.362;4.606;2023-10-09T13:00:58;15.70;;;5.90;;
61338;SDS011;47213;52.362;4.606;2023-10-09T13:05:58;13.00;;;5.70;;
61338;SDS011;47213;52.362;4.606;2023-10-09T13:11:06;13.00;;;5.70;;
61338;SDS011;47213;52.362;4.606;2023-10-09T13:20:58;15.60;;;6.10;;
61338;SDS011;47213;52.362;4.606;2023-10-09T13:25:58;15.00;;;6.10;;
61338;SDS011;47213;52.362;4.606;2023-10-09T13:30:58;15.00;;;6.10;;
61338;SDS011;47213;52.362;4.606;2023-10-09T13:35:58;15.70;;;6.50;;
61338;SDS011;47213;52.362;4.606;2023-10-09T13:40:59;15.70;;;6.50;;
61338;SDS011;47213;52.362;4.606;2023-10-09T13:50:58;17.60;;;6.20;;
61338;SDS011;47213;52.362;4.606;2023-10-09T13:55:58;16.00;;;6.60;;
61338;SDS011;47213;52.362;4.606;2023-10-09T14:00:58;16.00;;;6.60;;
61338;SDS011;47213;52.362;4.606;2023-10-09T14:05:58;16.50;;;6.50;;
61338;SDS011;47213;52.362;4.606;2023-10-09T14:10:58;16.50;;;6.50;;
61338;SDS011;47213;52.362;4.606;2023-10-09T14:15:58;15.60;;;6.50;;
61338;SDS011;47213;52.362;4.606;2023-10-09T14:21:02;15.60;;;6.50;;
61338;SDS011;47213;52.362;4.606;2023-10-09T14:30:58;18.60;;;6.70;;
61338;SDS011;47213;52.362;4.606;2023-10-09T14:35:58;19.70;;;6.70;;
61338;SDS011;47213;52.362;4.606;2023-10-09T14:40:58;19.70;;;6.70;;
61338;SDS011;47213;52.362;4.606;2023-10-09T14:45:58;14.90;;;6.70;;
61338;SDS011;47213;52.362;4.606;2023-10-09T14:55:59;17.30;;;6.60;;
61338;SDS011;47213;52.362;4.606;2023-10-09T15:01:07;17.30;;;6.60;;
61338;SDS011;47213;52.362;4.606;2023-10-09T15:05:58;15.70;;;6.50;;
61338;SDS011;47213;52.362;4.606;2023-10-09T15:15:58;15.70;;;6.00;;
61338;SDS011;47213;52.362;4.606;2023-10-09T15:20:58;15.70;;;6.00;;
61338;SDS011;47213;52.362;4.606;2023-10-09T15:25:59;11.70;;;4.70;;
61338;SDS011;47213;52.362;4.606;2023-10-09T15:30:58;11.70;;;4.70;;
61338;SDS011;47213;52.362;4.606;2023-10-09T15:35:58;14.10;;;5.10;;
61338;SDS011;47213;52.362;4.606;2023-10-09T15:40:59;14.10;;;5.10;;
61338;SDS011;47213;52.362;4.606;2023-10-09T15:45:59;15.00;;;5.10;;
61338;SDS011;47213;52.362;4.606;2023-10-09T15:56:00;12.30;;;4.90;;
61338;SDS011;47213;52.362;4.606;2023-10-09T16:00:58;12.30;;;4.90;;
61338;SDS011;47213;52.362;4.606;2023-10-09T16:05:58;11.60;;;4.70;;
61338;SDS011;47213;52.362;4.606;2023-10-09T16:10:58;11.60;;;4.70;;
61338;SDS011;47213;52.362;4.606;2023-10-09T16:15:59;11.00;;;4.60;;
61338;SDS011;47213;52.362;4.606;2023-10-09T16:25:59;11.10;;;4.10;;
61338;SDS011;47213;52.362;4.606;2023-10-09T16:40:59;10.30;;;4.40;;
61338;SDS011;47213;52.362;4.606;2023-10-09T16:46:01;9.80;;;4.10;;
61338;SDS011;47213;52.362;4.606;2023-10-09T16:56:00;10.90;;;4.30;;
61338;SDS011;47213;52.362;4.606;2023-10-09T17:00:59;10.90;;;4.30;;
61338;SDS011;47213;52.362;4.606;2023-10-09T17:10:59;12.00;;;4.20;;
61338;SDS011;47213;52.362;4.606;2023-10-09T17:15:59;12.90;;;5.50;;
61338;SDS011;47213;52.362;4.606;2023-10-09T17:26:02;14.50;;;5.20;;
61338;SDS011;47213;52.362;4.606;2023-10-09T17:31:00;14.50;;;5.20;;
61338;SDS011;47213;52.362;4.606;2023-10-09T17:36:00;12.10;;;5.00;;
61338;SDS011;47213;52.362;4.606;2023-10-09T17:40:59;12.10;;;5.00;;
61338;SDS011;47213;52.362;4.606;2023-10-09T17:46:00;14.30;;;6.30;;
61338;SDS011;47213;52.362;4.606;2023-10-09T17:50:59;14.30;;;6.30;;
61338;SDS011;47213;52.362;4.606;2023-10-09T17:55:59;19.40;;;6.80;;
61338;SDS011;47213;52.362;4.606;2023-10-09T18:05:59;15.20;;;6.30;;
61338;SDS011;47213;52.362;4.606;2023-10-09T18:10:59;15.20;;;6.30;;
61338;SDS011;47213;52.362;4.606;2023-10-09T18:20:59;12.90;;;5.60;;
61338;SDS011;47213;52.362;4.606;2023-10-09T18:25:59;13.60;;;5.30;;
61338;SDS011;47213;52.362;4.606;2023-10-09T18:30:59;13.60;;;5.30;;
61338;SDS011;47213;52.362;4.606;2023-10-09T18:36:06;11.80;;;4.50;;
61338;SDS011;47213;52.362;4.606;2023-10-09T18:55:59;9.50;;;4.00;;
61338;SDS011;47213;52.362;4.606;2023-10-09T19:00:59;9.50;;;4.00;;
61338;SDS011;47213;52.362;4.606;2023-10-09T19:15:59;9.40;;;3.50;;
61338;SDS011;47213;52.362;4.606;2023-10-09T19:25:59;9.00;;;3.70;;
61338;SDS011;47213;52.362;4.606;2023-10-09T19:36:03;10.30;;;3.80;;
61338;SDS011;47213;52.362;4.606;2023-10-09T19:40:59;10.30;;;3.80;;
61338;SDS011;47213;52.362;4.606;2023-10-09T19:46:03;9.10;;;4.00;;
61338;SDS011;47213;52.362;4.606;2023-10-09T19:51:00;9.10;;;4.00;;
61338;SDS011;47213;52.362;4.606;2023-10-09T20:06:02;11.50;;;4.70;;
61338;SDS011;47213;52.362;4.606;2023-10-09T20:11:08;11.50;;;4.70;;
61338;SDS011;47213;52.362;4.606;2023-10-09T20:16:00;8.60;;;4.20;;
61338;SDS011;47213;52.362;4.606;2023-10-09T20:20:59;8.60;;;4.20;;
61338;SDS011;47213;52.362;4.606;2023-10-09T20:26:01;11.00;;;4.10;;
61338;SDS011;47213;52.362;4.606;2023-10-09T20:30:59;11.00;;;4.10;;
61338;SDS011;47213;52.362;4.606;2023-10-09T20:36:08;8.70;;;3.90;;
61338;SDS011;47213;52.362;4.606;2023-10-09T20:41:03;8.70;;;3.90;;
61338;SDS011;47213;52.362;4.606;2023-10-09T20:46:01;10.00;;;4.10;;
61338;SDS011;47213;52.362;4.606;2023-10-09T20:50:59;10.00;;;4.10;;
61338;SDS011;47213;52.362;4.606;2023-10-09T20:55:59;13.20;;;4.60;;
61338;SDS011;47213;52.362;4.606;2023-10-09T21:01:00;13.20;;;4.60;;
61338;SDS011;47213;52.362;4.606;2023-10-09T21:06:01;11.50;;;4.50;;
61338;SDS011;47213;52.362;4.606;2023-10-09T21:16:02;9.70;;;4.90;;
61338;SDS011;47213;52.362;4.606;2023-10-09T21:25:59;10.90;;;5.00;;
61338;SDS011;47213;52.362;4.606;2023-10-09T21:31:01;10.90;;;5.00;;
61338;SDS011;47213;52.362;4.606;2023-10-09T21:35:59;10.40;;;4.80;;
61338;SDS011;47213;52.362;4.606;2023-10-09T21:45:59;11.40;;;4.90;;
61338;SDS011;47213;52.362;4.606;2023-10-09T22:01:00;10.70;;;5.50;;
61338;SDS011;47213;52.362;4.606;2023-10-09T22:05:59;9.90;;;5.20;;
61338;SDS011;47213;52.362;4.606;2023-10-09T22:11:00;9.90;;;5.20;;
61338;SDS011;47213;52.362;4.606;2023-10-09T22:15:59;12.00;;;5.50;;
61338;SDS011;47213;52.362;4.606;2023-10-09T22:20:59;12.00;;;5.50;;
61338;SDS011;47213;52.362;4.606;2023-10-09T22:26:00;10.80;;;5.20;;
61338;SDS011;47213;52.362;4.606;2023-10-09T22:31:00;10.80;;;5.20;;
61338;SDS011;47213;52.362;4.606;2023-10-09T22:36:00;11.40;;;5.30;;
61338;SDS011;47213;52.362;4.606;2023-10-09T22:41:00;11.40;;;5.30;;
61338;SDS011;47213;52.362;4.606;2023-10-09T22:46:00;9.90;;;5.30;;
61338;SDS011;47213;52.362;4.606;2023-10-09T22:51:00;9.90;;;5.30;;
61338;SDS011;47213;52.362;4.606;2023-10-09T22:56:00;10.80;;;5.30;;
61338;SDS011;47213;52.362;4.606;2023-10-09T23:01:00;10.80;;;5.30;;
61338;SDS011;47213;52.362;4.606;2023-10-09T23:16:00;11.60;;;5.40;;
61338;SDS011;47213;52.362;4.606;2023-10-09T23:26:00;12.60;;;5.50;;
61338;SDS011;47213;52.362;4.606;2023-10-09T23:31:00;12.60;;;5.50;;
61338;SDS011;47213;52.362;4.606;2023-10-09T23:46:00;12.80;;;6.50;;
61338;SDS011;47213;52.362;4.606;2023-10-09T23:51:01;12.80;;;6.50;;
61338;SDS011;47213;52.362;4.606;2023-10-09T23:56:02;12.20;;;6.60;;
